createdAt,value
2022-07-31T00:00:28.300Z,101359.25
2022-07-31T00:02:57.208Z,101359.63
2022-07-31T00:05:25.827Z,101358.78
2022-07-31T00:07:55.097Z,101359.84
2022-07-31T00:10:23.146Z,101361.31
2022-07-31T00:12:52.612Z,101364.97
2022-07-31T00:15:21.494Z,101358.06
2022-07-31T00:17:50.472Z,101361.91
2022-07-31T00:20:19.586Z,101357.63
2022-07-31T00:22:49.060Z,101362.53
2022-07-31T00:25:18.748Z,101357.16
2022-07-31T00:27:47.062Z,101352.84
2022-07-31T00:30:17.449Z,101350.03
2022-07-31T00:32:45.922Z,101361.63
2022-07-31T00:35:15.117Z,101350.66
2022-07-31T00:37:44.427Z,101342.50
2022-07-31T00:40:15.571Z,101349.81
2022-07-31T00:42:44.223Z,101335.81
2022-07-31T00:45:13.308Z,101331.09
2022-07-31T00:47:43.587Z,101339.47
2022-07-31T00:50:12.326Z,101329.56
2022-07-31T00:52:40.633Z,101328.03
2022-07-31T00:55:09.680Z,101334.91
2022-07-31T00:57:37.896Z,101329.72
2022-07-31T01:00:07.135Z,101327.06
2022-07-31T01:02:35.528Z,101327.50
2022-07-31T01:05:05.393Z,101324.72
2022-07-31T01:07:33.962Z,101323.38
2022-07-31T01:10:07.579Z,101328.09
2022-07-31T01:12:44.631Z,101330.22
2022-07-31T01:15:15.243Z,101327.38
2022-07-31T01:17:47.869Z,101332.09
2022-07-31T01:20:17.878Z,101332.50
2022-07-31T01:23:14.808Z,101324.28
2022-07-31T01:26:04.342Z,101330.03
2022-07-31T01:29:10.978Z,101327.59
2022-07-31T01:31:46.319Z,101320.97
2022-07-31T01:34:24.320Z,101319.41
2022-07-31T01:37:00.554Z,101322.63
2022-07-31T01:39:34.164Z,101320.22
2022-07-31T01:42:06.775Z,101319.75
2022-07-31T01:44:44.593Z,101315.44
2022-07-31T01:47:16.408Z,101312.19
2022-07-31T01:49:45.414Z,101311.94
2022-07-31T01:52:16.154Z,101311.94
2022-07-31T01:54:46.391Z,101311.41
2022-07-31T01:57:18.624Z,101312.47
2022-07-31T01:59:55.010Z,101314.81
2022-07-31T02:02:43.675Z,101308.09
2022-07-31T02:05:14.129Z,101314.94
2022-07-31T02:10:51.329Z,101300.84
2022-07-31T02:13:20.365Z,101304.91
2022-07-31T02:15:51.493Z,101305.94
2022-07-31T02:18:24.036Z,101304.59
2022-07-31T02:21:11.860Z,101303.47
2022-07-31T02:23:39.959Z,101301.06
2022-07-31T02:26:08.963Z,101301.47
2022-07-31T02:28:39.318Z,101297.16
2022-07-31T02:31:12.718Z,101303.78
2022-07-31T02:33:43.537Z,101299.00
2022-07-31T02:36:13.795Z,101298.50
2022-07-31T02:38:44.248Z,101301.00
2022-07-31T02:41:14.120Z,101287.44
2022-07-31T02:43:42.620Z,101294.28
2022-07-31T02:46:38.583Z,101289.97
2022-07-31T02:49:07.334Z,101295.03
2022-07-31T02:51:42.596Z,101296.09
2022-07-31T02:54:11.629Z,101295.63
2022-07-31T02:56:40.200Z,101299.28
2022-07-31T02:59:08.322Z,101296.88
2022-07-31T03:01:55.114Z,101306.94
2022-07-31T03:04:24.415Z,101295.13
2022-07-31T03:06:53.243Z,101298.78
2022-07-31T03:09:21.360Z,101291.31
2022-07-31T03:11:54.108Z,101291.31
2022-07-31T03:14:25.518Z,101295.44
2022-07-31T03:17:04.042Z,101301.66
2022-07-31T03:19:33.283Z,101296.31
2022-07-31T03:22:02.027Z,101296.94
2022-07-31T03:24:30.643Z,101296.75
2022-07-31T03:27:00.181Z,101290.16
2022-07-31T03:29:43.372Z,101295.53
2022-07-31T03:32:13.706Z,101295.97
2022-07-31T03:34:41.799Z,101301.53
2022-07-31T03:37:10.295Z,101300.50
2022-07-31T03:39:38.319Z,101295.78
2022-07-31T03:42:18.677Z,101301.16
2022-07-31T03:44:49.430Z,101299.06
2022-07-31T03:47:18.804Z,101294.22
2022-07-31T03:49:48.192Z,101293.34
2022-07-31T03:52:16.353Z,101289.50
2022-07-31T03:54:44.424Z,101289.50
2022-07-31T03:57:18.101Z,101294.66
2022-07-31T03:59:50.117Z,101287.38
2022-07-31T04:02:19.894Z,101289.78
2022-07-31T04:04:50.643Z,101299.38
2022-07-31T04:07:18.629Z,101294.47
2022-07-31T04:09:46.612Z,101297.94
2022-07-31T04:12:16.323Z,101300.72
2022-07-31T04:14:44.316Z,101307.16
2022-07-31T04:17:12.341Z,101304.38
2022-07-31T04:19:41.764Z,101304.81
2022-07-31T04:22:09.841Z,101308.66
2022-07-31T04:24:39.134Z,101303.97
2022-07-31T04:27:17.162Z,101301.19
2022-07-31T04:29:46.263Z,101302.03
2022-07-31T04:32:15.426Z,101296.47
2022-07-31T04:34:56.431Z,101299.06
2022-07-31T04:37:25.071Z,101294.56
2022-07-31T04:39:53.144Z,101296.28
2022-07-31T04:42:21.387Z,101305.50
2022-07-31T04:44:49.342Z,101305.50
2022-07-31T04:47:17.499Z,101307.22
2022-07-31T04:49:49.574Z,101306.56
2022-07-31T04:52:20.070Z,101317.13
2022-07-31T04:54:50.411Z,101312.81
2022-07-31T04:57:21.791Z,101312.63
2022-07-31T04:59:59.663Z,101308.97
2022-07-31T05:02:29.682Z,101307.69
2022-07-31T05:04:58.401Z,101307.50
2022-07-31T05:07:34.798Z,101304.34
2022-07-31T05:10:08.100Z,101304.34
2022-07-31T05:12:37.378Z,101307.97
2022-07-31T05:15:07.300Z,101311.44
2022-07-31T05:17:35.660Z,101307.78
2022-07-31T05:20:22.075Z,101310.59
2022-07-31T05:23:06.704Z,101314.88
2022-07-31T05:25:53.398Z,101312.09
2022-07-31T05:28:28.266Z,101306.34
2022-07-31T05:30:58.770Z,101298.84
2022-07-31T05:33:28.420Z,101305.09
2022-07-31T05:35:56.969Z,101305.94
2022-07-31T05:38:27.968Z,101310.25
2022-07-31T05:41:16.390Z,101315.16
2022-07-31T05:44:02.712Z,101308.72
2022-07-31T05:49:19.107Z,101316.91
2022-07-31T05:51:54.234Z,101307.69
2022-07-31T05:54:24.010Z,101307.94
2022-07-31T05:57:10.280Z,101308.13
2022-07-31T05:59:43.074Z,101305.84
2022-07-31T06:02:11.211Z,101311.84
2022-07-31T06:05:09.447Z,101306.09
2022-07-31T06:07:37.585Z,101312.78
2022-07-31T06:10:07.826Z,101313.75
2022-07-31T06:12:35.793Z,101306.03
2022-07-31T06:15:03.919Z,101312.78
2022-07-31T06:17:43.715Z,101309.22
2022-07-31T06:20:28.139Z,101310.50
2022-07-31T06:22:56.146Z,101308.47
2022-07-31T06:25:30.204Z,101302.75
2022-07-31T06:28:10.267Z,101296.78
2022-07-31T06:30:39.061Z,101298.56
2022-07-31T06:33:08.692Z,101289.38
2022-07-31T06:35:44.685Z,101291.59
2022-07-31T06:38:45.911Z,101280.69
2022-07-31T06:41:50.901Z,101281.81
2022-07-31T06:44:46.069Z,101291.53
2022-07-31T06:47:33.320Z,101298.44
2022-07-31T06:50:19.281Z,101310.88
2022-07-31T06:52:54.942Z,101305.78
2022-07-31T06:55:24.770Z,101310.06
2022-07-31T06:57:54.125Z,101311.41
2022-07-31T07:00:22.232Z,101306.88
2022-07-31T07:02:52.401Z,101312.28
2022-07-31T07:05:21.699Z,101311.41
2022-07-31T07:07:53.073Z,101306.88
2022-07-31T07:10:21.481Z,101307.94
2022-07-31T07:13:02.966Z,101311.59
2022-07-31T07:15:35.797Z,101311.13
2022-07-31T07:18:04.937Z,101304.91
2022-07-31T07:20:53.869Z,101311.09
2022-07-31T07:23:28.442Z,101305.50
2022-07-31T07:26:28.939Z,101300.25
2022-07-31T07:28:59.532Z,101298.56
2022-07-31T07:31:28.493Z,101297.41
2022-07-31T07:33:57.886Z,101298.91
2022-07-31T07:36:27.103Z,101298.41
2022-07-31T07:39:01.859Z,101288.75
2022-07-31T07:41:31.118Z,101300.09
2022-07-31T07:44:01.749Z,101300.09
2022-07-31T07:46:30.913Z,101283.94
2022-07-31T07:49:02.638Z,101290.19
2022-07-31T07:52:03.214Z,101282.91
2022-07-31T07:54:40.805Z,101275.88
2022-07-31T07:57:47.219Z,101279.31
2022-07-31T08:00:37.100Z,101287.53
2022-07-31T08:03:49.919Z,101287.78
2022-07-31T08:05:53.930Z,101276.88
2022-07-31T08:08:22.204Z,101268.59
2022-07-31T08:10:50.216Z,101271.44
2022-07-31T08:13:26.391Z,101272.16
2022-07-31T08:16:14.761Z,101278.00
2022-07-31T08:18:50.183Z,101269.72
2022-07-31T08:21:18.651Z,101277.09
2022-07-31T08:23:47.807Z,101269.66
2022-07-31T08:26:18.251Z,101263.06
2022-07-31T08:28:50.761Z,101265.91
2022-07-31T08:31:24.698Z,101267.66
2022-07-31T08:34:13.015Z,101271.56
2022-07-31T08:37:51.032Z,101275.00
2022-07-31T08:39:50.856Z,101277.66
2022-07-31T08:42:19.464Z,101280.66
2022-07-31T08:44:47.886Z,101283.03
2022-07-31T08:47:23.520Z,101280.66
2022-07-31T08:49:53.800Z,101284.09
2022-07-31T08:52:25.003Z,101283.44
2022-07-31T08:55:08.748Z,101283.03
2022-07-31T08:57:37.751Z,101273.78
2022-07-31T09:00:07.357Z,101277.25
2022-07-31T09:02:37.016Z,101274.84
2022-07-31T09:05:42.101Z,101276.78
2022-07-31T09:08:15.107Z,101272.91
2022-07-31T09:10:49.985Z,101272.09
2022-07-31T09:13:20.236Z,101274.22
2022-07-31T09:15:52.689Z,101269.28
2022-07-31T09:18:25.149Z,101271.69
2022-07-31T09:21:09.126Z,101264.16
2022-07-31T09:23:46.166Z,101262.19
2022-07-31T09:26:15.356Z,101257.03
2022-07-31T09:28:45.950Z,101261.94
2022-07-31T09:31:14.964Z,101256.31
2022-07-31T09:34:13.760Z,101257.81
2022-07-31T09:36:41.867Z,101258.91
2022-07-31T09:39:30.153Z,101262.97
2022-07-31T09:42:25.425Z,101263.19
2022-07-31T09:45:00.284Z,101258.00
2022-07-31T09:47:30.056Z,101253.69
2022-07-31T09:50:03.796Z,101260.56
2022-07-31T09:52:33.432Z,101264.66
2022-07-31T09:55:03.273Z,101260.34
2022-07-31T09:57:53.566Z,101256.00
2022-07-31T10:00:22.987Z,101265.09
2022-07-31T10:02:54.036Z,101265.09
2022-07-31T10:05:25.411Z,101264.22
2022-07-31T10:07:57.116Z,101261.22
2022-07-31T10:10:44.944Z,101255.84
2022-07-31T10:13:30.405Z,101258.69
2022-07-31T10:16:00.911Z,101252.22
2022-07-31T10:18:57.105Z,101254.78
2022-07-31T10:21:53.069Z,101250.53
2022-07-31T10:24:28.650Z,101243.59
2022-07-31T10:27:01.930Z,101243.19
2022-07-31T10:29:39.307Z,101239.75
2022-07-31T10:32:08.424Z,101235.66
2022-07-31T10:34:41.865Z,101230.91
2022-07-31T10:37:36.374Z,101235.88
2022-07-31T10:40:27.937Z,101224.19
2022-07-31T10:43:18.824Z,101232.84
2022-07-31T10:45:57.689Z,101220.13
2022-07-31T10:48:55.077Z,101225.47
2022-07-31T10:51:50.349Z,101223.72
2022-07-31T10:54:46.267Z,101226.25
2022-07-31T10:57:35.008Z,101233.97
2022-07-31T11:00:49.223Z,101232.25
2022-07-31T11:03:44.360Z,101225.91
2022-07-31T11:06:40.178Z,101223.09
2022-07-31T11:09:28.550Z,101218.13
2022-07-31T11:12:19.938Z,101223.25
2022-07-31T11:15:20.101Z,101227.94
2022-07-31T11:18:20.992Z,101226.22
2022-07-31T11:21:37.479Z,101224.66
2022-07-31T11:24:04.869Z,101221.19
2022-07-31T11:26:42.052Z,101208.63
2022-07-31T11:30:01.674Z,101212.25
2022-07-31T11:32:01.998Z,101206.41
2022-07-31T11:34:29.965Z,101204.03
2022-07-31T11:36:58.142Z,101205.50
2022-07-31T11:39:36.694Z,101200.56
2022-07-31T11:42:07.651Z,101207.66
2022-07-31T11:44:37.643Z,101206.97
2022-07-31T11:48:09.970Z,101205.22
2022-07-31T11:50:05.508Z,101205.66
2022-07-31T11:52:37.412Z,101201.34
2022-07-31T11:55:09.476Z,101202.38
2022-07-31T11:57:51.820Z,101204.16
2022-07-31T12:00:29.307Z,101191.56
2022-07-31T12:02:58.642Z,101179.25
2022-07-31T12:05:38.920Z,101173.19
2022-07-31T12:08:09.213Z,101174.66
2022-07-31T12:10:37.549Z,101181.53
2022-07-31T12:13:05.464Z,101170.94
2022-07-31T12:15:34.939Z,101168.91
2022-07-31T12:18:03.931Z,101164.81
2022-07-31T12:20:36.535Z,101179.84
2022-07-31T12:23:38.567Z,101174.16
2022-07-31T12:25:58.296Z,101171.78
2022-07-31T12:28:26.484Z,101174.50
2022-07-31T12:31:04.654Z,101163.19
2022-07-31T12:33:41.850Z,101167.25
2022-07-31T12:36:14.581Z,101169.34
2022-07-31T12:38:47.869Z,101162.03
2022-07-31T12:41:16.958Z,101161.56
2022-07-31T12:43:50.970Z,101159.34
2022-07-31T12:46:37.133Z,101149.59
2022-07-31T12:49:05.483Z,101144.00
2022-07-31T12:51:45.284Z,101148.50
2022-07-31T12:54:15.881Z,101145.06
2022-07-31T12:56:44.174Z,101145.06
2022-07-31T12:59:12.448Z,101150.47
2022-07-31T13:01:41.926Z,101147.44
2022-07-31T13:04:18.969Z,101134.06
2022-07-31T13:06:51.335Z,101139.69
2022-07-31T13:09:19.605Z,101134.84
2022-07-31T13:11:53.249Z,101132.00
2022-07-31T13:14:24.563Z,101129.19
2022-07-31T13:16:57.595Z,101127.22
2022-07-31T13:19:25.726Z,101122.56
2022-07-31T13:21:56.896Z,101120.00
2022-07-31T13:24:25.438Z,101120.94
2022-07-31T13:26:53.580Z,101117.00
2022-07-31T13:29:21.725Z,101110.78
2022-07-31T13:31:49.635Z,101113.84
2022-07-31T13:34:18.899Z,101111.88
2022-07-31T13:36:46.811Z,101117.97
2022-07-31T13:39:14.908Z,101119.91
2022-07-31T13:41:42.852Z,101123.56
2022-07-31T13:44:11.369Z,101110.63
2022-07-31T13:46:39.675Z,101108.06
2022-07-31T13:49:10.599Z,101104.16
2022-07-31T13:51:40.798Z,101105.00
2022-07-31T13:54:09.468Z,101107.81
2022-07-31T13:56:43.100Z,101108.66
2022-07-31T13:59:13.323Z,101100.88
2022-07-31T14:02:13.538Z,101107.34
2022-07-31T14:04:32.806Z,101099.16
2022-07-31T14:07:03.451Z,101103.47
2022-07-31T14:09:34.191Z,101108.44
2022-07-31T14:12:03.636Z,101104.09
2022-07-31T14:14:32.867Z,101097.34
2022-07-31T14:17:00.872Z,101092.13
2022-07-31T14:19:29.340Z,101085.19
2022-07-31T14:21:58.023Z,101087.53
2022-07-31T14:24:27.647Z,101076.44
2022-07-31T14:26:56.001Z,101079.25
2022-07-31T14:29:23.959Z,101074.00
2022-07-31T14:31:52.043Z,101085.00
2022-07-31T14:34:19.839Z,101084.78
2022-07-31T14:36:47.689Z,101079.78
2022-07-31T14:39:15.594Z,101071.38
2022-07-31T14:41:45.481Z,101070.00
2022-07-31T14:44:19.512Z,101073.94
2022-07-31T14:46:50.089Z,101070.88
2022-07-31T14:49:18.114Z,101076.25
2022-07-31T14:51:46.458Z,101077.13
2022-07-31T14:54:14.461Z,101070.41
2022-07-31T14:57:00.758Z,101069.66
2022-07-31T14:59:31.001Z,101070.31
2022-07-31T15:01:59.617Z,101069.22
2022-07-31T15:04:27.657Z,101070.06
2022-07-31T15:07:07.908Z,101069.84
2022-07-31T15:09:43.669Z,101069.22
2022-07-31T15:12:13.344Z,101065.31
2022-07-31T15:14:42.715Z,101060.53
2022-07-31T15:17:10.778Z,101056.03
2022-07-31T15:19:38.816Z,101063.59
2022-07-31T15:22:09.812Z,101055.16
2022-07-31T15:24:48.182Z,101044.16
2022-07-31T15:27:17.931Z,101041.13
2022-07-31T15:30:00.365Z,101047.34
2022-07-31T15:32:37.551Z,101042.22
2022-07-31T15:35:06.749Z,101056.25
2022-07-31T15:37:37.603Z,101044.16
2022-07-31T15:40:07.969Z,101051.72
2022-07-31T15:42:40.191Z,101049.78
2022-07-31T15:45:12.701Z,101048.69
2022-07-31T15:47:41.846Z,101032.28
2022-07-31T15:50:11.694Z,101038.78
2022-07-31T15:52:39.990Z,101031.69
2022-07-31T15:55:09.663Z,101034.28
2022-07-31T15:57:38.020Z,101032.56
2022-07-31T16:00:09.515Z,101034.00
2022-07-31T16:02:42.450Z,101035.97
2022-07-31T16:05:20.001Z,101024.72
2022-07-31T16:08:32.081Z,101020.47
2022-07-31T16:10:50.069Z,101025.84
2022-07-31T16:13:22.260Z,101019.09
2022-07-31T16:15:50.411Z,101019.09
2022-07-31T16:18:20.073Z,101016.06
2022-07-31T16:20:48.602Z,101019.59
2022-07-31T16:23:16.566Z,101011.41
2022-07-31T16:25:44.930Z,101015.53
2022-07-31T16:28:12.933Z,101011.28
2022-07-31T16:30:42.505Z,101011.53
2022-07-31T16:33:11.005Z,101023.84
2022-07-31T16:35:40.388Z,101015.41
2022-07-31T16:38:08.665Z,101021.75
2022-07-31T16:40:36.545Z,101019.19
2022-07-31T16:43:49.663Z,101003.44
2022-07-31T16:45:54.528Z,101006.34
2022-07-31T16:48:22.659Z,101008.31
2022-07-31T16:50:54.041Z,100998.16
2022-07-31T16:54:11.338Z,100993.84
2022-07-31T16:56:10.590Z,100998.09
2022-07-31T16:58:41.635Z,101002.16
2022-07-31T17:01:53.102Z,101009.09
2022-07-31T17:04:04.404Z,101008.31
2022-07-31T17:06:37.144Z,101002.91
2022-07-31T17:09:16.242Z,100991.78
2022-07-31T17:11:47.245Z,101000.66
2022-07-31T17:14:16.073Z,100990.16
2022-07-31T17:16:48.417Z,100989.53
2022-07-31T17:19:36.257Z,100999.28
2022-07-31T17:22:11.232Z,100995.88
2022-07-31T17:24:40.603Z,100999.13
2022-07-31T17:27:09.828Z,100998.28
2022-07-31T17:29:38.571Z,100991.19
2022-07-31T17:32:07.236Z,100992.53
2022-07-31T17:34:36.424Z,100989.72
2022-07-31T17:37:05.031Z,100992.75
2022-07-31T17:39:35.238Z,100989.09
2022-07-31T17:42:03.183Z,100994.31
2022-07-31T17:44:31.287Z,101002.94
2022-07-31T17:46:59.886Z,101006.00
2022-07-31T17:49:31.815Z,101040.59
2022-07-31T17:52:00.468Z,101058.53
2022-07-31T17:54:30.282Z,101068.50
2022-07-31T17:56:59.943Z,101066.59
2022-07-31T17:59:28.096Z,101052.22
2022-07-31T18:02:00.437Z,101049.94
2022-07-31T18:04:39.248Z,101046.81
2022-07-31T18:07:12.463Z,101040.69
2022-07-31T18:09:40.700Z,101042.91
2022-07-31T18:12:57.916Z,101044.28
2022-07-31T18:15:34.608Z,101042.88
2022-07-31T18:18:05.393Z,101040.13
2022-07-31T18:20:34.297Z,101041.50
2022-07-31T18:23:02.627Z,101044.34
2022-07-31T18:25:34.982Z,101045.47
2022-07-31T18:28:06.447Z,101052.56
2022-07-31T18:30:38.881Z,101049.84
2022-07-31T18:33:07.813Z,101049.41
2022-07-31T18:35:40.682Z,101052.25
2022-07-31T18:38:12.146Z,101049.28
2022-07-31T18:40:40.659Z,101051.25
2022-07-31T18:43:13.011Z,101060.72
2022-07-31T18:45:43.793Z,101061.63
2022-07-31T18:48:12.555Z,101065.28
2022-07-31T18:51:01.370Z,101072.41
2022-07-31T18:53:32.536Z,101076.69
2022-07-31T18:56:04.445Z,101078.22
2022-07-31T19:07:02.071Z,101106.22
2022-07-31T19:09:30.653Z,101102.13
2022-07-31T19:11:58.972Z,101098.28
2022-07-31T19:14:27.158Z,101100.22
2022-07-31T19:16:57.823Z,101104.75
2022-07-31T19:19:25.905Z,101104.69
2022-07-31T19:22:01.243Z,101098.91
2022-07-31T19:24:29.352Z,101113.97
2022-07-31T19:26:57.489Z,101110.09
2022-07-31T19:29:25.424Z,101113.72
2022-07-31T19:31:53.432Z,101116.31
2022-07-31T19:34:28.014Z,101108.59
2022-07-31T19:36:56.948Z,101116.72
2022-07-31T19:39:26.276Z,101125.31
2022-07-31T19:42:21.473Z,101118.84
2022-07-31T19:44:42.249Z,101121.22
2022-07-31T19:47:10.274Z,101124.44
2022-07-31T19:49:41.064Z,101124.84
2022-07-31T19:52:09.579Z,101125.06
2022-07-31T19:54:39.905Z,101128.91
2022-07-31T19:57:08.413Z,101126.72
2022-07-31T19:59:36.366Z,101130.81
2022-07-31T20:02:04.651Z,101135.75
2022-07-31T20:04:32.705Z,101138.75
2022-07-31T20:07:00.695Z,101138.09
2022-07-31T20:09:30.210Z,101140.25
2022-07-31T20:11:59.637Z,101148.38
2022-07-31T20:14:27.544Z,101153.75
2022-07-31T20:16:55.518Z,101158.47
2022-07-31T20:19:23.606Z,101160.59
2022-07-31T20:21:51.636Z,101158.88
2022-07-31T20:24:19.675Z,101165.75
2022-07-31T20:26:47.869Z,101164.03
2022-07-31T20:29:17.229Z,101162.09
2022-07-31T20:31:45.469Z,101165.28
2022-07-31T20:34:13.535Z,101169.16
2022-07-31T20:36:41.629Z,101169.16
2022-07-31T20:39:09.791Z,101167.44
2022-07-31T20:41:37.824Z,101165.69
2022-07-31T20:44:06.086Z,101163.16
2022-07-31T20:46:35.506Z,101161.41
2022-07-31T20:49:03.635Z,101167.41
2022-07-31T20:51:31.800Z,101171.47
2022-07-31T20:53:59.849Z,101169.09
2022-07-31T20:56:27.919Z,101162.88
2022-07-31T20:58:56.219Z,101163.25
2022-07-31T21:01:26.064Z,101167.34
2022-07-31T21:03:56.063Z,101172.06
2022-07-31T21:06:24.047Z,101179.09
2022-07-31T21:08:52.008Z,101173.09
2022-07-31T21:11:20.649Z,101170.72
2022-07-31T21:13:48.729Z,101162.72
2022-07-31T21:16:18.541Z,101170.66
2022-07-31T21:18:47.955Z,101168.25
2022-07-31T21:21:17.322Z,101169.31
2022-07-31T21:23:45.946Z,101172.53
2022-07-31T21:26:16.060Z,101177.25
2022-07-31T21:28:44.867Z,101169.47
2022-07-31T21:31:12.978Z,101175.28
2022-07-31T21:33:41.088Z,101172.69
2022-07-31T21:36:10.262Z,101185.78
2022-07-31T21:38:40.288Z,101180.19
2022-07-31T21:41:08.912Z,101186.84
2022-07-31T21:43:54.606Z,101177.81
2022-07-31T21:46:26.766Z,101181.03
2022-07-31T21:48:55.951Z,101184.44
2022-07-31T21:51:24.526Z,101186.38
2022-07-31T21:53:53.911Z,101186.38
2022-07-31T21:56:21.877Z,101178.44
2022-07-31T21:58:49.837Z,101181.22
2022-07-31T22:01:18.842Z,101185.06
2022-07-31T22:03:46.811Z,101184.19
2022-07-31T22:06:32.440Z,101180.56
2022-07-31T22:09:01.779Z,101182.28
2022-07-31T22:11:30.486Z,101182.47
2022-07-31T22:13:58.570Z,101184.41
2022-07-31T22:16:26.545Z,101191.91
2022-07-31T22:18:55.778Z,101186.31
2022-07-31T22:21:23.985Z,101190.16
2022-07-31T22:23:52.425Z,101187.38
2022-07-31T22:26:22.439Z,101198.34
2022-07-31T22:28:51.055Z,101188.44
2022-07-31T22:31:19.359Z,101199.59
2022-07-31T22:33:47.582Z,101196.81
2022-07-31T22:36:15.689Z,101197.91
2022-07-31T22:38:45.245Z,101204.31
2022-07-31T22:41:13.613Z,101198.97
2022-07-31T22:44:12.246Z,101190.38
2022-07-31T22:46:32.661Z,101202.81
2022-07-31T22:49:01.692Z,101195.50
2022-07-31T22:51:29.852Z,101193.59
2022-07-31T22:53:57.762Z,101200.22
2022-07-31T22:56:25.829Z,101198.50
2022-07-31T22:58:55.066Z,101209.25
2022-07-31T23:01:23.095Z,101203.19
2022-07-31T23:03:53.358Z,101207.91
2022-07-31T23:06:31.738Z,101210.69
2022-07-31T23:09:01.512Z,101205.31
2022-07-31T23:11:29.690Z,101212.81
2022-07-31T23:13:59.487Z,101216.47
2022-07-31T23:16:27.869Z,101223.34
2022-07-31T23:18:56.309Z,101220.75
2022-07-31T23:21:24.609Z,101213.63
2022-07-31T23:23:52.943Z,101222.00
2022-07-31T23:26:21.915Z,101218.53
2022-07-31T23:28:50.140Z,101219.81
2022-07-31T23:31:20.050Z,101217.91
2022-07-31T23:33:48.956Z,101221.09
2022-07-31T23:36:17.228Z,101215.69
2022-07-31T23:38:45.345Z,101214.19
2022-07-31T23:41:13.459Z,101214.41
2022-07-31T23:43:40.738Z,101214.56
2022-07-31T23:46:26.854Z,101208.97
2022-07-31T23:48:55.955Z,101212.16
2022-07-31T23:51:24.515Z,101204.84
2022-07-31T23:53:53.546Z,101212.56
2022-07-31T23:56:21.648Z,101213.63
2022-07-31T23:58:49.777Z,101210.00
